Cathy Theresa — OZEV2 — position and weather

sailwx.info

Track history (hours):
 
Tides and Currents Weather Stations Pressure Air Temp Water Temp Dewpoint Dewpoint Depression Visibility Wind Speed Wind Dir Waves Ship Positions

Cathy Theresa

Last reported at 2018-Feb-18 21:59 UTC. Time now 2018-Feb-18 22:27 UTC.
Position N 54°02' E 008°12'.

Length 102 m; draft 6.6 m.

Type: Tanker. MMSI: 219374000.

Date/timePositionNaut miles runAvg speedWind from/ knotsBaromVisibWave heightAir tempDewpointWater temp
2018-Feb-18 21:59N 54°02' E 008°12'0 0.1
2018-Feb-18 21:29N 54°03' E 008°12'0 0.1
2018-Feb-18 20:50N 54°03' E 008°12'0 0.1
2018-Feb-18 20:29N 54°03' E 008°12'0 0.1
2018-Feb-18 19:59N 54°03' E 008°12'0 0.0
2018-Feb-18 19:29N 54°03' E 008°12'0 0.0
2018-Feb-18 18:53N 54°03' E 008°12'0 0.0
2018-Feb-18 18:29N 54°03' E 008°12'0 0.0
2018-Feb-18 17:59N 54°03' E 008°12'0 0.0
2018-Feb-18 17:29N 54°03' E 008°12'0 0.0
2018-Feb-18 16:59N 54°03' E 008°12'0 0.0
2018-Feb-18 16:29N 54°03' E 008°12'0 0.0
2018-Feb-18 15:50N 54°03' E 008°12'0 0.0
2018-Feb-18 15:23N 54°03' E 008°12'0 0.0
2018-Feb-18 14:59N 54°03' E 008°12'0 0.0
2018-Feb-18 14:26N 54°03' E 008°12'0 0.0
2018-Feb-18 13:59N 54°03' E 008°12'0 0.0
2018-Feb-18 13:26N 54°03' E 008°12'0 0.1
2018-Feb-18 12:59N 54°03' E 008°12'0 0.0
2018-Feb-18 12:29N 54°03' E 008°12'0 0.0
2018-Feb-18 11:53N 54°03' E 008°12'0 0.0
2018-Feb-18 11:29N 54°02' E 008°12'0 0.0
2018-Feb-18 10:59N 54°02' E 008°12'0 0.0
2018-Feb-18 10:29N 54°02' E 008°12'0 0.0
2018-Feb-18 09:59N 54°02' E 008°12'0 0.1
2018-Feb-18 09:26N 54°03' E 008°12'0 0.1
2018-Feb-18 08:59N 54°03' E 008°12'0 0.1
2018-Feb-18 08:29N 54°03' E 008°12'0 0.0
2018-Feb-18 07:59N 54°03' E 008°12'0 0.0
2018-Feb-18 07:29N 54°03' E 008°12'0 0.0
2018-Feb-18 06:53N 54°03' E 008°12'0 0.0
2018-Feb-18 06:23N 54°03' E 008°12'0 0.0
2018-Feb-18 05:59N 54°03' E 008°12'0 0.0
2018-Feb-18 05:26N 54°03' E 008°12'0 0.0
2018-Feb-17 14:26N 54°02' E 008°12'0 0.1
2018-Feb-17 13:20N 54°02' E 008°12'0 0.0
2018-Feb-17 12:50N 54°02' E 008°12'0 0.0
2018-Feb-17 10:32N 54°02' E 008°12'0 0.0
2018-Feb-17 10:05N 54°02' E 008°12'0 0.0
2018-Feb-17 09:59N 54°02' E 008°12'0 0.1
2018-Feb-17 09:26N 54°02' E 008°12'3 6.0
2018-Feb-17 09:00N 54°01' E 008°15'611.5
2018-Feb-17 08:30N 53°59' E 008°24'713.1
2018-Feb-17 07:59N 53°58' E 008°35'713.7
2018-Feb-17 07:30N 53°53' E 008°43'0 0.2
2018-Feb-17 07:00N 53°53' E 008°43'0 0.0
2018-Feb-17 06:30N 53°53' E 008°43'0 0.0
2018-Feb-17 06:00N 53°53' E 008°43'0 0.0
2018-Feb-17 05:30N 53°53' E 008°43'0 0.0
2018-Feb-17 05:00N 53°53' E 008°43'0 0.0
2018-Feb-17 04:30N 53°53' E 008°43'0 0.0
2018-Feb-17 04:00N 53°53' E 008°43'0 0.0
2018-Feb-17 03:30N 53°53' E 008°43'0 0.0
2018-Feb-17 02:57N 53°53' E 008°43'0 0.1
2018-Feb-17 02:30N 53°53' E 008°43'0 0.2
2018-Feb-17 01:51N 53°53' E 008°43'0 0.1
2018-Feb-17 01:30N 53°53' E 008°43'1 1.4
2018-Feb-17 01:00N 53°53' E 008°42'712.9
2018-Feb-17 00:29N 53°58' E 008°34'813.8
2018-Feb-16 23:53N 53°59' E 008°20'17 8.5
2018-Feb-16 21:54N 53°49' E 007°58'4 9.7
2018-Feb-16 21:28N 53°46' E 008°03'510.6
2018-Feb-16 21:00N 53°41' E 008°05'3 5.2
2018-Feb-16 20:30N 53°38' E 008°07'0 0.0
2018-Feb-16 18:56N 53°38' E 008°07'0 0.0
2018-Feb-16 18:26N 53°38' E 008°07'0 0.0
2018-Feb-16 17:59N 53°38' E 008°07'0 0.0
2018-Feb-16 17:23N 53°38' E 008°07'0 0.0
2018-Feb-16 16:26N 53°38' E 008°07'0 0.0
2018-Feb-16 15:50N 53°38' E 008°07'0 0.0
2018-Feb-16 15:26N 53°38' E 008°07'0 0.0
2018-Feb-16 14:59N 53°38' E 008°07'0 0.0
2018-Feb-16 13:29N 53°38' E 008°07'0 0.0
2018-Feb-16 12:53N 53°38' E 008°07'0 0.0
2018-Feb-16 12:29N 53°38' E 008°07'0 0.0
2018-Feb-16 11:59N 53°38' E 008°07'0 0.0
2018-Feb-16 09:47N 53°38' E 008°07'0 0.0
2018-Feb-16 09:23N 53°38' E 008°07'0 0.0
2018-Feb-16 08:59N 53°38' E 008°07'0 0.0
2018-Feb-16 08:26N 53°38' E 008°07'0 0.0
2018-Feb-16 07:59N 53°38' E 008°07'0 0.0
2018-Feb-16 07:29N 53°38' E 008°07'0 0.0
2018-Feb-16 06:59N 53°38' E 008°07'0 0.0
2018-Feb-16 06:26N 53°38' E 008°07'0 0.0
2018-Feb-16 05:56N 53°38' E 008°07'0 0.0
2018-Feb-16 04:53N 53°38' E 008°07'0 0.0
2018-Feb-16 04:29N 53°38' E 008°07'0 0.0
2018-Feb-16 03:59N 53°38' E 008°07'0 0.0
2018-Feb-16 03:28N 53°38' E 008°07'0 0.0
2018-Feb-16 02:58N 53°38' E 008°07'0 0.0
2018-Feb-16 02:28N 53°38' E 008°07'0 0.0
2018-Feb-16 01:59N 53°38' E 008°07'1 2.8
2018-Feb-16 01:30N 53°40' E 008°06'510.0
2018-Feb-16 01:00N 53°44' E 008°03'5 9.7
2018-Feb-16 00:29N 53°49' E 007°58'611.3
2018-Feb-15 23:56N 53°52' E 007°50'910.3
2018-Feb-15 23:06N 53°57' E 007°38'111.3
2018-Feb-15 23:00N 53°58' E 007°37'22810.6
2018-Feb-15 01:24N 51°44' E 002°32'613.9
2018-Feb-15 01:00N 51°40' E 002°27'714.2
2018-Feb-15 00:30N 51°34' E 002°19'714.4
2018-Feb-15 00:00N 51°29' E 002°12'713.8
2018-Feb-14 23:30N 51°22' E 002°07'714.0
2018-Feb-14 23:00N 51°15' E 002°07'714.3
2018-Feb-14 22:30N 51°11' E 001°57'714.6
2018-Feb-14 22:00N 51°07' E 001°48'714.9
2018-Feb-14 21:30N 51°02' E 001°39'714.5
2018-Feb-14 21:00N 50°57' E 001°31'714.0
2018-Feb-14 20:30N 50°51' E 001°26'813.2
2018-Feb-14 19:55N 50°43' E 001°22'4311.5
2018-Feb-14 16:12N 50°25' E 000°21'310.9
2018-Feb-14 15:57N 50°24' E 000°17'510.8
2018-Feb-14 15:30N 50°23' E 000°10'510.4
2018-Feb-14 15:00N 50°21' E 000°02'510.2
2018-Feb-14 14:30N 50°20' W 000°06'510.1
2018-Feb-14 14:00N 50°19' W 000°13'3510.4
2018-Feb-14 10:39N 50°09' W 001°06'212.4
2018-Feb-14 10:29N 50°09' W 001°09'612.8
2018-Feb-14 10:00N 50°07' W 001°18'713.6
2018-Feb-14 09:31N 50°05' W 001°28'714.1
2018-Feb-14 09:00N 50°03' W 001°39'714.5
2018-Feb-14 08:30N 50°01' W 001°50'714.7
2018-Feb-14 08:00N 49°60' W 002°01'3214.3
2018-Feb-14 05:44N 49°51' W 002°49'1612.4
2018-Feb-14 04:26N 49°49' W 003°14'811.8
2018-Feb-14 03:46N 49°48' W 003°26'311.8
2018-Feb-14 03:30N 49°48' W 003°31'167 6.5
2018-Feb-13 01:49N 52°13' W 005°42'100 3.9
2018-Feb-12 00:09N 53°24' W 003°45'211.0
2018-Feb-12 00:00N 53°24' W 003°42'510.3
2018-Feb-11 23:30N 53°25' W 003°33'510.4
2018-Feb-11 23:00N 53°28' W 003°26'5 9.5
2018-Feb-11 22:30N 53°31' W 003°20'510.0
2018-Feb-11 22:00N 53°32' W 003°11'4 8.8
2018-Feb-11 21:30N 53°29' W 003°05'510.3
2018-Feb-11 21:00N 53°25' W 003°00'510.5
2018-Feb-11 20:30N 53°20' W 002°57'1 0.0
2018-Feb-10 08:26N 53°19' W 002°57'0 0.3
2018-Feb-10 08:00N 53°19' W 002°57'0 0.2
2018-Feb-10 07:30N 53°20' W 002°57'2 4.5
2018-Feb-10 07:00N 53°22' W 002°58'4 8.1
2018-Feb-10 06:30N 53°25' W 003°01'510.0
2018-Feb-10 06:00N 53°30' W 003°06'510.0
2018-Feb-10 05:30N 53°31' W 003°14'4 8.4
2018-Feb-10 05:00N 53°32' W 003°21'2 3.4
2018-Feb-10 04:30N 53°32' W 003°23'2 3.6
2018-Feb-10 04:00N 53°33' W 003°26'4 7.6
2018-Feb-10 03:30N 53°35' W 003°31'4 8.5
2018-Feb-10 03:00N 53°38' W 003°36'4 8.3
2018-Feb-10 02:29N 53°41' W 003°41'4 8.0
2018-Feb-10 02:00N 53°44' W 003°45'5 8.1
2018-Feb-10 01:27N 53°47' W 003°51'  
Track history (hours):
 
Tides and Currents Weather Stations Pressure Air Temp Water Temp Dewpoint Dewpoint Depression Visibility Wind Speed Wind Dir Waves Ship Positions

Cathy Theresa

Last reported at 2018-Feb-18 21:59 UTC. Time now 2018-Feb-18 22:27 UTC.
Position N 54°02' E 008°12'.

Length 102 m; draft 6.6 m.

Type: Tanker. MMSI: 219374000.

Date/timePositionNaut miles runAvg speedWind from/ knotsBaromVisibWave heightAir tempDewpointWater temp
2018-Feb-18 21:59N 54°02' E 008°12'0 0.1
2018-Feb-18 21:29N 54°03' E 008°12'0 0.1
2018-Feb-18 20:50N 54°03' E 008°12'0 0.1
2018-Feb-18 20:29N 54°03' E 008°12'0 0.1
2018-Feb-18 19:59N 54°03' E 008°12'0 0.0
2018-Feb-18 19:29N 54°03' E 008°12'0 0.0
2018-Feb-18 18:53N 54°03' E 008°12'0 0.0
2018-Feb-18 18:29N 54°03' E 008°12'0 0.0
2018-Feb-18 17:59N 54°03' E 008°12'0 0.0
2018-Feb-18 17:29N 54°03' E 008°12'0 0.0
2018-Feb-18 16:59N 54°03' E 008°12'0 0.0
2018-Feb-18 16:29N 54°03' E 008°12'0 0.0
2018-Feb-18 15:50N 54°03' E 008°12'0 0.0
2018-Feb-18 15:23N 54°03' E 008°12'0 0.0
2018-Feb-18 14:59N 54°03' E 008°12'0 0.0
2018-Feb-18 14:26N 54°03' E 008°12'0 0.0
2018-Feb-18 13:59N 54°03' E 008°12'0 0.0
2018-Feb-18 13:26N 54°03' E 008°12'0 0.1
2018-Feb-18 12:59N 54°03' E 008°12'0 0.0
2018-Feb-18 12:29N 54°03' E 008°12'0 0.0
2018-Feb-18 11:53N 54°03' E 008°12'0 0.0
2018-Feb-18 11:29N 54°02' E 008°12'0 0.0
2018-Feb-18 10:59N 54°02' E 008°12'0 0.0
2018-Feb-18 10:29N 54°02' E 008°12'0 0.0
2018-Feb-18 09:59N 54°02' E 008°12'0 0.1
2018-Feb-18 09:26N 54°03' E 008°12'0 0.1
2018-Feb-18 08:59N 54°03' E 008°12'0 0.1
2018-Feb-18 08:29N 54°03' E 008°12'0 0.0
2018-Feb-18 07:59N 54°03' E 008°12'0 0.0
2018-Feb-18 07:29N 54°03' E 008°12'0 0.0
2018-Feb-18 06:53N 54°03' E 008°12'0 0.0
2018-Feb-18 06:23N 54°03' E 008°12'0 0.0
2018-Feb-18 05:59N 54°03' E 008°12'0 0.0
2018-Feb-18 05:26N 54°03' E 008°12'0 0.0
2018-Feb-17 14:26N 54°02' E 008°12'0 0.1
2018-Feb-17 13:20N 54°02' E 008°12'0 0.0
2018-Feb-17 12:50N 54°02' E 008°12'0 0.0
2018-Feb-17 10:32N 54°02' E 008°12'0 0.0
2018-Feb-17 10:05N 54°02' E 008°12'0 0.0
2018-Feb-17 09:59N 54°02' E 008°12'0 0.1
2018-Feb-17 09:26N 54°02' E 008°12'3 6.0
2018-Feb-17 09:00N 54°01' E 008°15'611.5
2018-Feb-17 08:30N 53°59' E 008°24'713.1
2018-Feb-17 07:59N 53°58' E 008°35'713.7
2018-Feb-17 07:30N 53°53' E 008°43'0 0.2
2018-Feb-17 07:00N 53°53' E 008°43'0 0.0
2018-Feb-17 06:30N 53°53' E 008°43'0 0.0
2018-Feb-17 06:00N 53°53' E 008°43'0 0.0
2018-Feb-17 05:30N 53°53' E 008°43'0 0.0
2018-Feb-17 05:00N 53°53' E 008°43'0 0.0
2018-Feb-17 04:30N 53°53' E 008°43'0 0.0
2018-Feb-17 04:00N 53°53' E 008°43'0 0.0
2018-Feb-17 03:30N 53°53' E 008°43'0 0.0
2018-Feb-17 02:57N 53°53' E 008°43'0 0.1
2018-Feb-17 02:30N 53°53' E 008°43'0 0.2
2018-Feb-17 01:51N 53°53' E 008°43'0 0.1
2018-Feb-17 01:30N 53°53' E 008°43'1 1.4
2018-Feb-17 01:00N 53°53' E 008°42'712.9
2018-Feb-17 00:29N 53°58' E 008°34'813.8
2018-Feb-16 23:53N 53°59' E 008°20'17 8.5
2018-Feb-16 21:54N 53°49' E 007°58'4 9.7
2018-Feb-16 21:28N 53°46' E 008°03'510.6
2018-Feb-16 21:00N 53°41' E 008°05'3 5.2
2018-Feb-16 20:30N 53°38' E 008°07'0 0.0
2018-Feb-16 18:56N 53°38' E 008°07'0 0.0
2018-Feb-16 18:26N 53°38' E 008°07'0 0.0
2018-Feb-16 17:59N 53°38' E 008°07'0 0.0
2018-Feb-16 17:23N 53°38' E 008°07'0 0.0
2018-Feb-16 16:26N 53°38' E 008°07'0 0.0
2018-Feb-16 15:50N 53°38' E 008°07'0 0.0
2018-Feb-16 15:26N 53°38' E 008°07'0 0.0
2018-Feb-16 14:59N 53°38' E 008°07'0 0.0
2018-Feb-16 13:29N 53°38' E 008°07'0 0.0
2018-Feb-16 12:53N 53°38' E 008°07'0 0.0
2018-Feb-16 12:29N 53°38' E 008°07'0 0.0
2018-Feb-16 11:59N 53°38' E 008°07'0 0.0
2018-Feb-16 09:47N 53°38' E 008°07'0 0.0
2018-Feb-16 09:23N 53°38' E 008°07'0 0.0
2018-Feb-16 08:59N 53°38' E 008°07'0 0.0
2018-Feb-16 08:26N 53°38' E 008°07'0 0.0
2018-Feb-16 07:59N 53°38' E 008°07'0 0.0
2018-Feb-16 07:29N 53°38' E 008°07'0 0.0
2018-Feb-16 06:59N 53°38' E 008°07'0 0.0
2018-Feb-16 06:26N 53°38' E 008°07'0 0.0
2018-Feb-16 05:56N 53°38' E 008°07'0 0.0
2018-Feb-16 04:53N 53°38' E 008°07'0 0.0
2018-Feb-16 04:29N 53°38' E 008°07'0 0.0
2018-Feb-16 03:59N 53°38' E 008°07'0 0.0
2018-Feb-16 03:28N 53°38' E 008°07'0 0.0
2018-Feb-16 02:58N 53°38' E 008°07'0 0.0
2018-Feb-16 02:28N 53°38' E 008°07'0 0.0
2018-Feb-16 01:59N 53°38' E 008°07'1 2.8
2018-Feb-16 01:30N 53°40' E 008°06'510.0
2018-Feb-16 01:00N 53°44' E 008°03'5 9.7
2018-Feb-16 00:29N 53°49' E 007°58'611.3
2018-Feb-15 23:56N 53°52' E 007°50'910.3
2018-Feb-15 23:06N 53°57' E 007°38'111.3
2018-Feb-15 23:00N 53°58' E 007°37'22810.6
2018-Feb-15 01:24N 51°44' E 002°32'613.9
2018-Feb-15 01:00N 51°40' E 002°27'714.2
2018-Feb-15 00:30N 51°34' E 002°19'714.4
2018-Feb-15 00:00N 51°29' E 002°12'713.8
2018-Feb-14 23:30N 51°22' E 002°07'714.0
2018-Feb-14 23:00N 51°15' E 002°07'714.3
2018-Feb-14 22:30N 51°11' E 001°57'714.6
2018-Feb-14 22:00N 51°07' E 001°48'714.9
2018-Feb-14 21:30N 51°02' E 001°39'714.5
2018-Feb-14 21:00N 50°57' E 001°31'714.0
2018-Feb-14 20:30N 50°51' E 001°26'813.2
2018-Feb-14 19:55N 50°43' E 001°22'4311.5
2018-Feb-14 16:12N 50°25' E 000°21'310.9
2018-Feb-14 15:57N 50°24' E 000°17'510.8
2018-Feb-14 15:30N 50°23' E 000°10'510.4
2018-Feb-14 15:00N 50°21' E 000°02'510.2
2018-Feb-14 14:30N 50°20' W 000°06'510.1
2018-Feb-14 14:00N 50°19' W 000°13'3510.4
2018-Feb-14 10:39N 50°09' W 001°06'212.4
2018-Feb-14 10:29N 50°09' W 001°09'612.8
2018-Feb-14 10:00N 50°07' W 001°18'713.6
2018-Feb-14 09:31N 50°05' W 001°28'714.1
2018-Feb-14 09:00N 50°03' W 001°39'714.5
2018-Feb-14 08:30N 50°01' W 001°50'714.7
2018-Feb-14 08:00N 49°60' W 002°01'3214.3
2018-Feb-14 05:44N 49°51' W 002°49'1612.4
2018-Feb-14 04:26N 49°49' W 003°14'811.8
2018-Feb-14 03:46N 49°48' W 003°26'311.8
2018-Feb-14 03:30N 49°48' W 003°31'167 6.5
2018-Feb-13 01:49N 52°13' W 005°42'100 3.9
2018-Feb-12 00:09N 53°24' W 003°45'211.0
2018-Feb-12 00:00N 53°24' W 003°42'510.3
2018-Feb-11 23:30N 53°25' W 003°33'510.4
2018-Feb-11 23:00N 53°28' W 003°26'5 9.5
2018-Feb-11 22:30N 53°31' W 003°20'510.0
2018-Feb-11 22:00N 53°32' W 003°11'4 8.8
2018-Feb-11 21:30N 53°29' W 003°05'510.3
2018-Feb-11 21:00N 53°25' W 003°00'510.5
2018-Feb-11 20:30N 53°20' W 002°57'1 0.0
2018-Feb-10 08:26N 53°19' W 002°57'0 0.3
2018-Feb-10 08:00N 53°19' W 002°57'0 0.2
2018-Feb-10 07:30N 53°20' W 002°57'2 4.5
2018-Feb-10 07:00N 53°22' W 002°58'4 8.1
2018-Feb-10 06:30N 53°25' W 003°01'510.0
2018-Feb-10 06:00N 53°30' W 003°06'510.0
2018-Feb-10 05:30N 53°31' W 003°14'4 8.4
2018-Feb-10 05:00N 53°32' W 003°21'2 3.4
2018-Feb-10 04:30N 53°32' W 003°23'2 3.6
2018-Feb-10 04:00N 53°33' W 003°26'4 7.6
2018-Feb-10 03:30N 53°35' W 003°31'4 8.5
2018-Feb-10 03:00N 53°38' W 003°36'4 8.3
2018-Feb-10 02:29N 53°41' W 003°41'4 8.0
2018-Feb-10 02:00N 53°44' W 003°45'5 8.1
2018-Feb-10 01:27N 53°47' W 003°51'  

Dump ship's entire track history